Time;durP1;ratioP1;P1;durP2;ratioP2;P2;SDS_P1;SDS_P2;PMS_P1;PMS_P2;Temp;Humidity;BMP_temperature;BMP_pressure;BME280_temperature;BME280_humidity;BME280_pressure;Samples;Min_cycle;Max_cycle;Signal;HPM_P1;HPM_P2
2023/03/27 00:02:27;;;;;;;4.60;4.20;;;;;;;21.91;29.03;93999.69;6284373;27;111759;-64
2023/03/27 00:05:37;;;;;;;4.37;4.07;;;;;;;22.11;28.72;94024.69;6286008;27;109062;-63
2023/03/27 00:08:49;;;;;;;5.20;4.80;;;;;;;22.10;28.85;94007.94;6272626;27;109001;-66
2023/03/27 00:11:59;;;;;;;4.63;4.27;;;;;;;22.12;28.84;94015.59;6284553;27;109062;-63
2023/03/27 00:15:08;;;;;;;4.37;3.97;;;;;;;22.11;29.17;94003.38;6286314;27;109096;-63
2023/03/27 00:18:14;;;;;;;4.20;3.80;;;;;;;22.08;28.88;94007.47;6279894;27;109018;-63
2023/03/27 00:21:24;;;;;;;4.53;4.17;;;;;;;21.96;29.46;93980.81;6285598;27;110131;-63
2023/03/27 00:24:36;;;;;;;4.10;3.80;;;;;;;22.08;28.98;93998.72;6283053;27;109085;-63
2023/03/27 00:27:43;;;;;;;4.77;4.37;;;;;;;22.10;29.28;94007.94;6277423;27;110305;-63
2023/03/27 00:30:50;;;;;;;4.17;3.87;;;;;;;22.10;29.10;94005.28;6268928;27;110205;-63
2023/03/27 00:33:57;;;;;;;4.23;3.93;;;;;;;22.09;29.04;93998.38;6269052;27;111188;-63
2023/03/27 00:37:11;;;;;;;4.63;4.23;;;;;;;22.08;29.59;93996.06;6281651;27;108929;-62
2023/03/27 00:40:19;;;;;;;3.90;3.60;;;;;;;22.06;29.34;93995.59;6281495;27;110819;-63
2023/03/27 00:43:28;;;;;;;3.80;3.50;;;;;;;21.83;29.46;93965.91;6279279;27;111575;-63
2023/03/27 00:46:44;;;;;;;3.80;3.50;;;;;;;22.07;29.53;93997.16;6282651;27;108953;-63
2023/03/27 00:50:01;;;;;;;5.93;4.07;;;;;;;22.07;29.26;93987.28;6282313;27;110990;-63
2023/03/27 00:53:16;;;;;;;3.60;3.30;;;;;;;22.05;29.20;93986.84;6274223;27;112245;-63
2023/03/27 00:56:26;;;;;;;3.93;3.63;;;;;;;21.93;29.42;93957.50;6284291;27;109317;-62
2023/03/27 00:59:40;;;;;;;4.03;3.70;;;;;;;21.85;29.05;93931.75;6290242;27;109113;-63
2023/03/27 01:02:51;;;;;;;4.00;3.70;;;;;;;22.04;29.50;93979.97;6285118;27;109957;-63
2023/03/27 01:06:06;;;;;;;3.90;3.60;;;;;;;22.03;29.20;93951.00;6272158;27;110365;-63
2023/03/27 01:09:25;;;;;;;3.90;3.53;;;;;;;22.06;29.61;93971.63;6283275;27;109423;-63
2023/03/27 01:12:45;;;;;;;3.80;3.50;;;;;;;22.01;29.21;93950.50;6285502;27;109206;-63
2023/03/27 01:16:03;;;;;;;4.00;3.70;;;;;;;22.03;29.41;93954.44;6264269;27;109342;-62
2023/03/27 01:19:45;;;;;;;3.73;3.43;;;;;;;22.03;29.61;93943.00;6284098;27;109145;-63
2023/03/27 01:23:36;;;;;;;4.07;3.77;;;;;;;22.00;29.80;93932.97;6269439;27;109019;-63
2023/03/27 01:27:17;;;;;;;4.07;3.77;;;;;;;22.02;29.26;93939.56;6246855;27;111095;-63
2023/03/27 01:30:32;;;;;;;3.90;3.60;;;;;;;22.02;29.38;93920.13;6260538;27;109038;-62
2023/03/27 01:34:04;;;;;;;3.73;3.43;;;;;;;22.00;29.38;93919.66;6270472;27;109094;-63
2023/03/27 01:37:37;;;;;;;3.80;3.50;;;;;;;22.01;29.33;93935.34;6288461;27;109062;-62
2023/03/27 01:40:54;;;;;;;4.43;4.00;;;;;;;21.99;29.63;93934.88;6277193;27;110031;-62
2023/03/27 01:44:06;;;;;;;4.87;4.47;;;;;;;22.01;29.33;93929.22;6290938;27;110247;-63
2023/03/27 01:47:23;;;;;;;4.03;3.73;;;;;;;21.99;29.11;93910.13;6290288;27;109257;-62
2023/03/27 01:50:43;;;;;;;4.17;3.87;;;;;;;21.97;29.45;93918.44;6278314;27;110130;-62
2023/03/27 01:54:01;;;;;;;3.90;3.60;;;;;;;22.00;29.49;93906.34;6289613;27;108970;-62
2023/03/27 01:57:19;;;;;;;3.50;3.20;;;;;;;21.88;29.30;93893.03;6288924;27;108971;-62
2023/03/27 02:00:28;;;;;;;3.80;3.43;;;;;;;21.98;29.85;93896.03;6286134;27;109008;-62
2023/03/27 02:04:02;;;;;;;3.60;3.30;;;;;;;21.97;29.65;93901.69;6285202;27;108902;-62
2023/03/27 02:07:20;;;;;;;4.10;3.73;;;;;;;21.93;29.74;93896.25;6299492;27;109305;-62
2023/03/27 02:10:32;;;;;;;3.87;3.57;;;;;;;21.94;29.63;93895.13;6285571;27;110744;-62
2023/03/27 02:13:47;;;;;;;3.77;3.47;;;;;;;21.97;29.71;93891.03;6271111;27;109597;-62
2023/03/27 02:17:02;;;;;;;3.40;3.20;;;;;;;21.96;29.44;93892.13;6288144;27;109229;-62
2023/03/27 02:20:16;;;;;;;3.63;3.33;;;;;;;21.97;29.79;93885.69;6284070;27;110792;-62
2023/03/27 02:23:29;;;;;;;4.33;3.77;;;;;;;21.77;29.50;93848.16;6281770;27;111592;-62
2023/03/27 02:26:37;;;;;;;4.20;3.90;;;;;;;21.97;29.74;93881.16;6280861;27;109009;-62
2023/03/27 02:30:03;;;;;;;4.07;3.70;;;;;;;21.92;29.59;93859.28;6286213;27;109099;-62
2023/03/27 02:33:22;;;;;;;3.90;3.50;;;;;;;21.95;29.56;93854.06;6283734;27;110658;-62
2023/03/27 02:36:46;;;;;;;4.03;3.73;;;;;;;21.89;29.69;93846.66;6276585;27;109227;-62
2023/03/27 02:39:58;;;;;;;4.60;4.20;;;;;;;21.87;29.98;93841.66;6274274;27;111067;-62
2023/03/27 02:43:10;;;;;;;4.20;3.77;;;;;;;21.74;29.43;93818.78;6280221;27;109344;-63
2023/03/27 02:46:28;;;;;;;4.23;3.93;;;;;;;21.92;29.92;93840.66;6277200;27;109949;-63
2023/03/27 02:49:44;;;;;;;4.30;4.00;;;;;;;21.91;29.76;93834.53;6274684;27;111484;-63
2023/03/27 02:52:58;;;;;;;3.97;3.67;;;;;;;21.80;29.51;93793.47;6286244;27;108898;-63
2023/03/27 02:56:11;;;;;;;4.50;4.10;;;;;;;21.90;29.61;93792.28;6285122;27;110664;-62
2023/03/27 02:59:29;;;;;;;4.37;3.97;;;;;;;21.84;29.44;93777.63;6276035;27;109394;-63
2023/03/27 03:02:36;;;;;;;4.57;4.17;;;;;;;21.84;29.47;93781.06;6275578;27;109008;-62
2023/03/27 03:05:42;;;;;;;4.20;3.90;;;;;;;21.90;29.51;93801.03;6294147;27;108996;-62
2023/03/27 03:08:52;;;;;;;4.43;4.03;;;;;;;21.91;29.57;93804.47;6271210;27;109926;-62
2023/03/27 03:12:03;;;;;;;4.60;4.20;;;;;;;21.94;29.53;93809.13;6278053;27;109123;-62
2023/03/27 03:15:11;;;;;;;4.60;4.30;;;;;;;21.94;29.78;93788.59;6287390;27;110227;-63
2023/03/27 03:18:19;;;;;;;5.20;4.70;;;;;;;21.92;29.69;93772.19;6282636;27;109052;-63
2023/03/27 03:21:27;;;;;;;6.00;5.40;;;;;;;21.67;28.98;93778.59;6274530;27;109168;-63
2023/03/27 03:24:32;;;;;;;6.30;5.70;;;;;;;21.49;28.45;93757.53;6272378;27;111482;-63
2023/03/27 03:27:35;;;;;;;12.93;9.17;;;;;;;21.22;27.93;93758.19;6268608;27;111492;-64
2023/03/27 03:30:44;;;;;;;8.43;6.53;;;;;;;21.03;27.70;93737.41;6272303;27;109222;-64
2023/03/27 03:33:52;;;;;;;9.33;7.33;;;;;;;20.83;27.16;93740.91;6273840;27;109255;-63
2023/03/27 03:37:00;;;;;;;7.57;6.87;;;;;;;20.72;26.87;93729.94;6287282;27;109507;-63
2023/03/27 03:40:10;;;;;;;6.70;6.10;;;;;;;20.81;26.48;93751.88;6288006;27;108939;-63
2023/03/27 03:43:21;;;;;;;6.30;5.70;;;;;;;20.89;26.72;93751.00;6284287;27;109452;-63
2023/03/27 03:46:30;;;;;;;8.47;7.53;;;;;;;20.87;27.18;93736.50;6279831;27;108862;-68
2023/03/27 03:49:47;;;;;;;7.00;6.30;;;;;;;20.90;26.15;93733.19;6287275;27;110293;-68
2023/03/27 03:52:58;;;;;;;8.30;6.13;;;;;;;20.30;26.93;93722.03;6285264;27;109264;-65
2023/03/27 03:56:09;;;;;;;6.00;5.40;;;;;;;20.47;26.84;93730.94;6275913;27;111383;-64
2023/03/27 03:59:18;;;;;;;5.20;4.70;;;;;;;20.61;26.54;93739.41;6286938;27;109028;-67
2023/03/27 04:02:28;;;;;;;5.53;5.03;;;;;;;20.97;26.92;93730.75;6285898;27;111513;-67
2023/03/27 04:05:39;;;;;;;5.93;5.27;;;;;;;21.13;26.42;93736.22;6282228;27;109973;-68
2023/03/27 04:08:44;;;;;;;4.97;4.47;;;;;;;21.05;28.14;93699.88;6273077;27;109071;-68
2023/03/27 04:11:54;;;;;;;7.17;5.50;;;;;;;21.33;27.38;93715.94;6265516;27;112444;-69
2023/03/27 04:14:59;;;;;;;6.20;5.20;;;;;;;21.32;28.24;93717.81;6285470;27;109914;-69
2023/03/27 04:18:04;;;;;;;5.97;5.40;;;;;;;21.39;27.67;93742.00;6276919;27;110933;-68
2023/03/27 04:21:14;;;;;;;5.00;4.57;;;;;;;21.37;27.27;93733.59;6274049;27;110201;-69
2023/03/27 04:24:29;;;;;;;6.30;5.10;;;;;;;21.39;26.74;93717.28;6262483;27;109585;-69
2023/03/27 04:27:40;;;;;;;6.23;4.80;;;;;;;21.35;26.74;93743.03;6262167;27;109067;-68
2023/03/27 04:30:51;;;;;;;7.53;5.40;;;;;;;21.33;27.05;93751.31;6250317;27;108985;-68
2023/03/27 04:33:58;;;;;;;6.50;5.90;;;;;;;21.29;27.01;93731.81;6271663;27;109194;-68
2023/03/27 04:37:12;;;;;;;6.37;5.77;;;;;;;21.34;26.78;93752.88;6287566;27;109089;-68
2023/03/27 04:40:31;;;;;;;6.27;5.50;;;;;;;21.33;26.58;93751.31;6284870;27;108646;-68
2023/03/27 04:43:38;;;;;;;6.03;5.53;;;;;;;21.24;26.58;93724.03;6281234;27;109040;-69
2023/03/27 04:46:42;;;;;;;6.10;5.60;;;;;;;21.26;26.52;93713.84;6287465;27;109471;-69
2023/03/27 04:49:57;;;;;;;6.63;6.03;;;;;;;21.29;26.34;93717.72;6286869;27;109042;-68
2023/03/27 04:53:11;;;;;;;9.63;6.30;;;;;;;21.28;26.34;93695.66;6275421;27;109058;-67
2023/03/27 04:56:22;;;;;;;8.30;6.00;;;;;;;21.28;26.33;93724.94;6287188;27;109406;-69
2023/03/27 04:59:34;;;;;;;6.47;5.70;;;;;;;21.27;26.20;93696.00;6287053;27;109021;-70
2023/03/27 05:02:42;;;;;;;7.20;5.07;;;;;;;21.26;26.30;93711.19;6286903;27;109027;-68
2023/03/27 05:05:52;;;;;;;5.70;4.43;;;;;;;21.23;26.01;93706.53;6275839;27;109217;-68
2023/03/27 05:09:03;;;;;;;5.60;4.43;;;;;;;21.12;26.25;93687.56;6287086;27;109892;-68
2023/03/27 05:12:11;;;;;;;7.07;4.63;;;;;;;21.07;25.99;93641.81;6291499;27;109997;-66
2023/03/27 05:15:20;;;;;;;7.30;4.60;;;;;;;20.80;26.12;93648.50;6283192;27;109189;-66
2023/03/27 05:18:31;;;;;;;5.20;4.53;;;;;;;20.66;26.19;93640.84;6290012;27;108941;-69
2023/03/27 05:21:43;;;;;;;9.50;6.00;;;;;;;20.68;26.37;93673.22;6291013;27;111389;-66
2023/03/27 05:24:57;;;;;;;6.60;5.90;;;;;;;20.61;26.15;93672.97;6291169;27;109379;-66
2023/03/27 05:28:09;;;;;;;7.20;6.17;;;;;;;20.60;26.19;93658.13;6280049;27;109313;-67
2023/03/27 05:31:23;;;;;;;7.60;6.70;;;;;;;20.56;26.31;93630.66;6280632;27;109511;-66
2023/03/27 05:34:33;;;;;;;6.30;5.70;;;;;;;20.53;26.36;93618.03;6279364;27;109210;-67
2023/03/27 05:37:40;;;;;;;10.93;7.10;;;;;;;20.50;26.38;93632.78;6287780;27;111060;-67
2023/03/27 05:40:53;;;;;;;7.87;7.07;;;;;;;20.46;26.17;93609.81;6284317;27;109542;-66
2023/03/27 05:44:04;;;;;;;8.50;7.10;;;;;;;20.46;26.39;93580.59;6291266;27;110051;-67
2023/03/27 05:47:11;;;;;;;9.43;7.00;;;;;;;20.46;25.99;93599.19;6290864;27;109125;-67
2023/03/27 05:50:24;;;;;;;7.23;6.53;;;;;;;20.48;25.98;93563.22;6279465;27;109000;-67
2023/03/27 05:53:38;;;;;;;7.20;5.73;;;;;;;20.48;26.17;93565.09;6289885;27;109343;-67
2023/03/27 05:56:49;;;;;;;9.43;4.90;;;;;;;20.40;25.99;93521.59;6290453;27;108982;-67
2023/03/27 06:00:01;;;;;;;4.70;4.30;;;;;;;20.49;25.71;93524.91;6290553;27;109099;-67
2023/03/27 06:03:06;;;;;;;4.30;3.30;;;;;;;20.26;25.74;93500.66;6278288;27;109877;-66
2023/03/27 06:06:14;;;;;;;4.43;3.40;;;;;;;20.26;26.01;93479.41;6289897;27;109412;-67
2023/03/27 06:09:24;;;;;;;3.83;2.50;;;;;;;20.30;25.81;93477.63;6290409;27;109116;-67
2023/03/27 06:12:37;;;;;;;2.70;2.20;;;;;;;20.18;25.46;93484.81;6282760;27;109014;-66
2023/03/27 06:15:48;;;;;;;2.80;2.60;;;;;;;20.18;25.61;93461.69;6289821;27;108990;-66
2023/03/27 06:19:04;;;;;;;4.50;2.47;;;;;;;19.91;25.91;93454.34;6290253;27;108936;-67
2023/03/27 06:22:14;;;;;;;4.93;3.27;;;;;;;20.04;26.22;93416.09;6289519;27;109223;-68
2023/03/27 06:25:22;;;;;;;4.40;2.17;;;;;;;20.15;25.91;93427.03;6278050;27;109127;-65
2023/03/27 06:28:35;;;;;;;4.40;2.20;;;;;;;20.02;25.58;93458.13;6290093;27;110147;-67
2023/03/27 06:31:44;;;;;;;2.30;2.10;;;;;;;19.89;25.39;93404.25;6290017;27;109276;-67
2023/03/27 06:34:52;;;;;;;33.73;5.07;;;;;;;19.83;25.84;93396.84;6284956;27;109486;-67
2023/03/27 06:38:05;;;;;;;23.40;4.17;;;;;;;20.23;25.94;93407.56;6282469;27;108979;-67
2023/03/27 06:41:18;;;;;;;14.97;3.10;;;;;;;20.52;25.80;93410.00;6289850;27;109016;-68
2023/03/27 06:44:35;;;;;;;9.30;2.93;;;;;;;20.71;26.15;93446.63;6289718;27;109910;-66
2023/03/27 06:47:50;;;;;;;8.57;2.97;;;;;;;20.80;26.02;93452.56;6279619;27;110786;-67
2023/03/27 06:51:06;;;;;;;7.33;2.67;;;;;;;20.96;26.02;93465.16;6289596;27;109025;-67
2023/03/27 06:54:18;;;;;;;8.83;2.33;;;;;;;21.03;26.09;93444.09;6288427;27;109024;-67
2023/03/27 06:57:27;;;;;;;7.00;3.00;;;;;;;21.10;25.88;93468.25;6289299;27;109033;-67
2023/03/27 07:00:40;;;;;;;13.10;3.20;;;;;;;21.20;26.13;93462.47;6278047;27;108824;-67
2023/03/27 07:03:50;;;;;;;7.23;2.10;;;;;;;21.34;26.22;93476.16;6289143;27;109098;-66
2023/03/27 07:07:02;;;;;;;5.13;2.93;;;;;;;21.39;26.04;93459.94;6289239;27;109348;-67
2023/03/27 07:10:11;;;;;;;3.90;2.10;;;;;;;21.58;25.61;93471.84;6278814;27;109830;-66
2023/03/27 07:13:23;;;;;;;6.47;2.70;;;;;;;21.71;25.60;93476.75;6289340;27;109082;-66
2023/03/27 07:16:35;;;;;;;8.03;2.40;;;;;;;21.76;25.25;93441.88;6289273;27;110708;-66
2023/03/27 07:19:47;;;;;;;5.67;2.20;;;;;;;21.96;25.47;93468.66;6289363;27;109197;-66
2023/03/27 07:22:57;;;;;;;5.13;2.07;;;;;;;22.06;25.28;93457.50;6276789;27;109920;-67
2023/03/27 07:26:08;;;;;;;4.03;2.17;;;;;;;22.09;25.28;93460.22;6288982;27;109224;-66
2023/03/27 07:29:15;;;;;;;3.67;2.17;;;;;;;22.11;25.49;93460.66;6287873;27;109026;-66
2023/03/27 07:32:31;;;;;;;6.00;2.10;;;;;;;22.09;25.80;93462.91;6283449;27;109163;-66
2023/03/27 07:35:46;;;;;;;3.47;2.00;;;;;;;22.08;25.72;93471.22;6286221;27;108957;-66
2023/03/27 07:38:59;;;;;;;3.63;2.10;;;;;;;22.08;25.98;93482.66;6288612;27;108990;-66
2023/03/27 07:42:05;;;;;;;2.83;2.07;;;;;;;22.11;26.15;93473.22;6288506;27;109220;-66
2023/03/27 07:45:15;;;;;;;4.00;2.00;;;;;;;22.12;26.07;93472.09;6277407;27;110441;-66
2023/03/27 07:48:24;;;;;;;3.50;2.30;;;;;;;22.06;25.69;93457.50;6288565;27;109723;-67
2023/03/27 07:51:35;;;;;;;2.60;1.90;;;;;;;22.05;25.88;93470.03;6288874;27;108991;-66
2023/03/27 07:54:45;;;;;;;4.80;2.20;;;;;;;22.03;25.94;93488.25;6287639;27;109283;-65
2023/03/27 07:57:58;;;;;;;6.20;2.07;;;;;;;21.99;26.38;93484.72;6282427;27;109033;-67
2023/03/27 08:01:08;;;;;;;2.13;1.70;;;;;;;21.96;26.02;93448.09;6288560;27;108999;-66
2023/03/27 08:04:20;;;;;;;2.23;2.03;;;;;;;21.91;26.22;93464.34;6287861;27;108948;-66
2023/03/27 08:07:31;;;;;;;2.97;2.27;;;;;;;21.89;26.78;93434.63;6277000;27;109070;-66
2023/03/27 08:10:42;;;;;;;1.93;1.73;;;;;;;21.86;26.81;93427.34;6288199;27;109245;-66
2023/03/27 08:13:55;;;;;;;2.17;1.87;;;;;;;21.83;26.89;93430.66;6287817;27;109307;-66
2023/03/27 08:17:01;;;;;;;3.73;2.00;;;;;;;21.78;26.78;93414.91;6288298;27;110028;-66
2023/03/27 08:20:26;;;;;;;2.90;1.93;;;;;;;21.78;26.61;93426.34;6276282;27;109100;-65
2023/03/27 08:23:38;;;;;;;2.20;1.93;;;;;;;21.75;27.10;93428.91;6287862;27;109227;-65
2023/03/27 08:26:45;;;;;;;3.00;1.90;;;;;;;21.77;27.14;93434.69;6287775;27;108768;-66
2023/03/27 08:29:54;;;;;;;3.13;2.13;;;;;;;21.71;26.79;93412.09;6279005;27;109132;-65
2023/03/27 08:33:08;;;;;;;3.50;1.77;;;;;;;21.74;26.99;93403.41;6286826;27;109109;-65
2023/03/27 08:36:19;;;;;;;3.03;2.20;;;;;;;21.73;26.91;93410.63;6262345;27;109913;-66
2023/03/27 08:39:29;;;;;;;3.33;1.97;;;;;;;21.71;26.75;93414.75;6262261;27;109056;-65
2023/03/27 08:42:41;;;;;;;2.27;1.80;;;;;;;21.70;26.82;93416.66;6250636;27;109394;-66
2023/03/27 08:45:56;;;;;;;3.00;1.80;;;;;;;21.69;27.34;93447.03;6261662;27;108961;-66
2023/03/27 08:49:13;;;;;;;2.27;1.80;;;;;;;21.68;27.12;93423.44;6262042;27;109226;-66
2023/03/27 08:52:26;;;;;;;1.47;1.37;;;;;;;21.66;27.49;93445.03;6257039;27;109222;-66
2023/03/27 08:55:42;;;;;;;2.47;1.63;;;;;;;21.66;27.48;93417.66;6255888;27;108954;-67
2023/03/27 08:58:59;;;;;;;3.43;1.50;;;;;;;21.65;27.10;93374.28;6262700;27;108546;-66
2023/03/27 09:02:21;;;;;;;2.03;1.47;;;;;;;21.64;27.21;93362.09;6261889;27;110394;-66
2023/03/27 09:05:41;;;;;;;1.70;1.60;;;;;;;21.65;27.51;93368.19;6268121;27;109105;-66
2023/03/27 09:09:05;;;;;;;1.70;1.60;;;;;;;21.62;27.24;93379.53;6286525;27;109095;-66
2023/03/27 09:12:24;;;;;;;1.60;1.50;;;;;;;21.63;27.58;93362.44;6287296;27;112095;-66
2023/03/27 09:15:36;;;;;;;1.50;1.40;;;;;;;21.64;27.40;93377.28;6279874;27;110819;-66
2023/03/27 09:18:52;;;;;;;1.40;1.30;;;;;;;21.63;27.54;93376.53;6286311;27;108904;-66
2023/03/27 09:22:06;;;;;;;1.60;1.43;;;;;;;21.57;27.57;93409.84;6286246;27;109149;-66
2023/03/27 09:25:22;;;;;;;2.40;1.97;;;;;;;21.63;27.73;93402.38;6285981;27;109431;-67
2023/03/27 09:28:40;;;;;;;1.90;1.80;;;;;;;21.65;27.86;93413.44;6276462;27;110222;-66
2023/03/27 09:31:51;;;;;;;2.57;1.63;;;;;;;21.64;27.80;93403.91;6286750;27;109076;-66
2023/03/27 09:35:00;;;;;;;2.73;1.70;;;;;;;21.62;27.54;93401.59;6286149;27;109110;-66
2023/03/27 09:38:28;;;;;;;3.20;1.60;;;;;;;21.61;27.65;93417.91;6280956;27;109152;-66
2023/03/27 09:41:46;;;;;;;2.10;1.53;;;;;;;21.62;28.02;93398.16;6285968;27;108983;-66
2023/03/27 09:44:59;;;;;;;1.90;1.60;;;;;;;21.62;27.52;93392.84;6286291;27;109034;-66
2023/03/27 09:48:16;;;;;;;1.40;1.30;;;;;;;21.59;27.74;93415.59;6285217;27;109081;-66
2023/03/27 09:51:44;;;;;;;1.63;1.47;;;;;;;21.56;28.01;93412.84;6274545;27;109210;-66
2023/03/27 09:54:59;;;;;;;1.43;1.33;;;;;;;21.59;28.09;93369.56;6285768;27;109051;-66
2023/03/27 09:58:24;;;;;;;2.73;1.77;;;;;;;21.56;28.07;93370.25;6288779;27;109627;-66
2023/03/27 10:01:33;;;;;;;1.50;1.40;;;;;;;21.59;28.16;93359.69;6280077;27;110698;-65
2023/03/27 10:05:03;;;;;;;1.60;1.50;;;;;;;21.59;27.90;93359.69;6289682;27;108999;-66
2023/03/27 10:08:36;;;;;;;1.70;1.60;;;;;;;21.59;28.04;93369.56;6290448;27;109267;-66
2023/03/27 10:11:49;;;;;;;1.30;1.20;;;;;;;21.63;28.19;93402.38;6290217;27;109311;-66
2023/03/27 10:15:05;;;;;;;1.87;1.53;;;;;;;21.61;27.82;93432.00;6278256;27;109417;-66
2023/03/27 10:18:28;;;;;;;2.47;1.90;;;;;;;21.60;28.38;93414.47;6290238;27;108962;-66
2023/03/27 10:21:41;;;;;;;2.90;1.73;;;;;;;21.59;28.04;93450.19;6290290;27;109231;-66
2023/03/27 10:24:55;;;;;;;1.47;1.30;;;;;;;21.58;28.10;93406.06;6278758;27;109061;-68
2023/03/27 10:28:24;;;;;;;2.10;1.50;;;;;;;21.59;27.91;93412.16;6289871;27;109099;-65
2023/03/27 10:31:50;;;;;;;1.50;1.40;;;;;;;21.59;28.09;93393.53;6289991;27;109326;-66
2023/03/27 10:35:04;;;;;;;2.03;1.80;;;;;;;21.57;28.23;93395.75;6288269;27;111487;-65
2023/03/27 10:38:18;;;;;;;1.43;1.33;;;;;;;21.50;28.14;93359.84;6283710;27;109107;-66
2023/03/27 10:41:29;;;;;;;1.40;1.30;;;;;;;21.57;28.53;93353.94;6289314;27;108998;-66
2023/03/27 10:44:43;;;;;;;1.50;1.40;;;;;;;21.57;28.55;93353.94;6288080;27;109276;-66
2023/03/27 10:47:57;;;;;;;1.50;1.40;;;;;;;21.57;27.97;93339.88;6278275;27;109787;-66
2023/03/27 10:51:14;;;;;;;1.80;1.53;;;;;;;21.47;28.57;93293.25;6289499;27;109194;-66
2023/03/27 10:54:40;;;;;;;3.70;1.60;;;;;;;21.58;28.11;93301.50;6289155;27;109793;-65
2023/03/27 10:57:56;;;;;;;3.27;1.53;;;;;;;21.58;28.36;93294.28;6288119;27;109237;-65
2023/03/27 11:01:13;;;;;;;1.87;1.70;;;;;;;21.57;28.57;93284.75;6283381;27;109062;-65
2023/03/27 11:04:32;;;;;;;1.93;1.40;;;;;;;21.59;28.48;93289.72;6288584;27;109157;-66
2023/03/27 11:07:47;;;;;;;1.53;1.30;;;;;;;21.57;28.63;93294.63;6288280;27;109508;-66
2023/03/27 11:11:02;;;;;;;1.40;1.30;;;;;;;21.56;28.44;93288.53;6278025;27;110153;-66
2023/03/27 11:14:21;;;;;;;1.33;1.23;;;;;;;21.58;28.79;93309.47;6289101;27;109052;-65
2023/03/27 11:17:34;;;;;;;1.63;1.53;;;;;;;21.54;28.24;93308.63;6288996;27;109288;-65
2023/03/27 11:20:52;;;;;;;1.70;1.20;;;;;;;21.57;28.49;93330.00;6287399;27;109099;-65
2023/03/27 11:24:02;;;;;;;1.50;1.40;;;;;;;21.57;28.48;93355.84;6283152;27;109254;-65
2023/03/27 11:27:19;;;;;;;1.50;1.40;;;;;;;21.59;28.69;93369.56;6288290;27;109053;-65
2023/03/27 11:30:43;;;;;;;1.90;1.80;;;;;;;21.58;28.59;93403.41;6288472;27;109113;-65
2023/03/27 11:33:58;;;;;;;1.50;1.40;;;;;;;21.59;28.67;93414.81;6277811;27;110602;-65
2023/03/27 11:37:24;;;;;;;1.60;1.50;;;;;;;21.58;28.73;93423.91;6288782;27;109711;-65
2023/03/27 11:40:39;;;;;;;1.70;1.40;;;;;;;21.55;28.76;93421.94;6288866;27;110028;-65
2023/03/27 11:43:49;;;;;;;1.53;1.40;;;;;;;21.57;28.55;93431.13;6283699;27;109198;-65
2023/03/27 11:47:14;;;;;;;1.50;1.40;;;;;;;21.57;28.58;93427.69;6282278;27;109012;-66
2023/03/27 11:50:37;;;;;;;1.60;1.50;;;;;;;21.58;28.78;93431.91;6286963;27;109489;-66
2023/03/27 11:54:02;;;;;;;1.50;1.40;;;;;;;21.58;29.16;93421.25;6287167;27;108953;-65
2023/03/27 11:57:22;;;;;;;1.60;1.50;;;;;;;21.57;29.09;93425.81;6277719;27;109745;-66
2023/03/27 12:00:36;;;;;;;1.40;1.30;;;;;;;21.52;28.81;93408.22;6288001;27;109645;-67
2023/03/27 12:04:10;;;;;;;1.83;1.60;;;;;;;21.55;28.77;93436.03;6287834;27;109048;-66
2023/03/27 12:07:40;;;;;;;1.63;1.53;;;;;;;21.56;28.81;93444.78;6277324;27;109116;-65
2023/03/27 12:11:02;;;;;;;1.50;1.40;;;;;;;21.56;28.94;93474.84;6287497;27;109182;-66
2023/03/27 12:14:32;;;;;;;1.40;1.20;;;;;;;21.57;28.68;93489.69;6288228;27;109084;-66
2023/03/27 12:18:03;;;;;;;1.63;1.30;;;;;;;21.56;28.98;93529.97;6287891;27;109703;-66
2023/03/27 12:21:28;;;;;;;1.60;1.50;;;;;;;21.56;29.14;93557.34;6280579;27;109072;-66
2023/03/27 12:24:46;;;;;;;1.33;1.23;;;;;;;21.56;28.99;93561.91;6287214;27;109210;-66
2023/03/27 12:28:18;;;;;;;1.20;1.10;;;;;;;21.56;29.01;93567.22;6287608;27;109088;-66
2023/03/27 12:31:47;;;;;;;1.30;1.20;;;;;;;21.57;29.00;93568.78;6277516;27;110454;-65
2023/03/27 12:34:59;;;;;;;1.30;1.20;;;;;;;21.52;28.91;93561.81;6287638;27;109125;-67
2023/03/27 12:38:15;;;;;;;1.30;1.20;;;;;;;21.58;28.96;93572.97;6287278;27;109143;-66
2023/03/27 12:41:25;;;;;;;1.30;1.20;;;;;;;21.53;29.29;93563.34;6282110;27;109021;-66
2023/03/27 12:45:03;;;;;;;1.50;1.40;;;;;;;21.58;29.36;93554.34;6285620;27;109364;-68
2023/03/27 12:48:22;;;;;;;1.50;1.40;;;;;;;21.59;29.41;93539.91;6287389;27;109162;-66
2023/03/27 12:51:46;;;;;;;1.20;1.10;;;;;;;21.58;29.04;93517.09;6287504;27;109117;-66
2023/03/27 12:55:23;;;;;;;1.90;1.80;;;;;;;21.59;29.39;93507.97;6276134;27;109701;-66
2023/03/27 12:58:35;;;;;;;1.40;1.30;;;;;;;21.62;29.24;93483.34;6287093;27;109237;-66
2023/03/27 13:02:11;;;;;;;1.73;1.20;;;;;;;21.58;29.32;93455.88;6287263;27;110330;-66
2023/03/27 13:05:35;;;;;;;1.30;1.20;;;;;;;21.61;29.54;93442.63;6275928;27;109065;-65
2023/03/27 13:09:27;;;;;;;1.30;1.20;;;;;;;21.58;29.08;93430.03;6286747;27;108978;-66
2023/03/27 13:13:05;;;;;;;1.23;1.10;;;;;;;21.59;29.41;93401.50;6286860;27;109523;-65
2023/03/27 13:16:30;;;;;;;1.43;1.33;;;;;;;21.62;29.73;93379.53;6264468;27;109078;-65
2023/03/27 13:19:56;;;;;;;0.73;0.73;;;;;;;21.63;29.36;93381.84;6286755;27;109246;-67
2023/03/27 13:23:25;;;;;;;1.27;1.17;;;;;;;21.58;29.44;93370.69;6286825;27;109079;-66
2023/03/27 13:26:51;;;;;;;1.47;1.37;;;;;;;21.61;29.69;93384.06;6283761;27;109155;-66
2023/03/27 13:30:00;;;;;;;1.30;1.20;;;;;;;21.50;29.44;93373.16;6280732;27;109065;-67
2023/03/27 13:33:18;;;;;;;1.40;1.30;;;;;;;21.63;29.49;93378.41;6290428;27;109231;-66
2023/03/27 13:36:30;;;;;;;1.30;1.20;;;;;;;21.62;29.24;93382.97;6290969;27;109092;-66
2023/03/27 13:39:46;;;;;;;1.30;1.20;;;;;;;21.62;29.38;93377.63;6280564;27;109538;-69
2023/03/27 13:43:10;;;;;;;1.10;1.00;;;;;;;21.62;29.54;93388.28;6291056;27;109307;-67
2023/03/27 13:46:17;;;;;;;1.37;1.00;;;;;;;21.63;29.34;93397.03;6291947;27;109059;-67
2023/03/27 13:49:59;;;;;;;1.27;1.17;;;;;;;21.59;29.29;93402.28;6290515;27;109140;-66
2023/03/27 13:53:38;;;;;;;1.20;1.10;;;;;;;21.62;29.39;93414.91;6291184;27;109072;-66
2023/03/27 13:56:59;;;;;;;1.13;1.03;;;;;;;21.64;29.68;93412.66;6222531;27;109063;-65
2023/03/27 14:00:43;;;;;;;1.20;1.10;;;;;;;21.63;29.56;93416.44;6292106;27;108962;-65
2023/03/27 14:04:18;;;;;;;2.30;1.30;;;;;;;21.62;29.85;93422.13;6276546;27;109297;-66
2023/03/27 14:07:51;;;;;;;1.20;1.10;;;;;;;21.64;29.41;93407.34;6291532;27;109137;-65
2023/03/27 14:11:23;;;;;;;1.67;1.00;;;;;;;21.64;29.93;93395.94;6291726;27;109159;-66
2023/03/27 14:14:46;;;;;;;1.00;1.00;;;;;;;21.62;29.51;93369.66;6280388;27;109047;-66
2023/03/27 14:18:04;;;;;;;0.80;0.80;;;;;;;21.61;30.08;93370.00;6290699;27;108935;-66
2023/03/27 14:21:15;;;;;;;2.33;2.13;;;;;;;21.40;31.56;93341.75;6291401;27;109032;-66
2023/03/27 14:24:39;;;;;;;3.63;2.43;;;;;;;21.21;32.04;93358.38;6280381;27;109084;-65
2023/03/27 14:27:50;;;;;;;3.10;2.60;;;;;;;21.14;32.38;93371.47;6291309;27;109155;-66
2023/03/27 14:30:56;;;;;;;2.97;2.67;;;;;;;21.11;32.54;93380.13;6291282;27;109323;-66
2023/03/27 14:34:04;;;;;;;3.97;2.80;;;;;;;21.08;32.50;93409.31;6291196;27;110068;-66
2023/03/27 14:37:30;;;;;;;2.70;2.50;;;;;;;21.05;33.11;93410.00;6279662;27;110606;-67
2023/03/27 14:40:46;;;;;;;3.43;3.03;;;;;;;21.02;32.91;93392.81;6291370;27;109238;-66
2023/03/27 14:44:04;;;;;;;3.63;2.73;;;;;;;20.92;33.01;93407.34;6290204;27;110243;-66
2023/03/27 14:47:26;;;;;;;4.17;2.80;;;;;;;20.88;33.31;93395.06;6280155;27;109221;-67
2023/03/27 14:50:39;;;;;;;2.33;2.13;;;;;;;20.83;33.10;93401.38;6291061;27;109473;-66
2023/03/27 14:54:00;;;;;;;2.60;2.20;;;;;;;20.88;33.35;93395.84;6289324;27;108921;-69
2023/03/27 14:57:13;;;;;;;2.80;2.03;;;;;;;20.85;33.53;93396.53;6289475;27;109483;-67
2023/03/27 15:00:31;;;;;;;3.10;2.37;;;;;;;20.76;33.58;93390.56;6279106;27;109014;-67
2023/03/27 15:03:42;;;;;;;2.50;2.30;;;;;;;20.71;33.63;93385.47;6288701;27;109138;-67
2023/03/27 15:06:49;;;;;;;2.03;1.83;;;;;;;20.66;33.66;93372.41;6289201;27;110078;-67
2023/03/27 15:10:21;;;;;;;2.60;2.30;;;;;;;20.63;33.75;93365.13;6278578;27;110178;-68